TimeCDT,TemperatureF,Dew PointF,Humidity,Sea Level PressureIn,VisibilityMPH,Wind Direction,Wind SpeedMPH,Gust SpeedMPH,PrecipitationIn,Events,Conditions,WindDirDegrees,DateUTC
12:55 AM,32.5,30.7,93,30.22,10.0,Calm,Calm,-,N/A,,Clear,0,2013-03-29 05:55:00
1:55 AM,30.0,29.5,98,30.21,10.0,Calm,Calm,-,N/A,,Clear,0,2013-03-29 06:55:00
2:55 AM,37.4,30.4,76,30.20,10.0,Calm,Calm,-,N/A,,Clear,0,2013-03-29 07:55:00
3:55 AM,33.8,27.3,77,30.19,10.0,NE,6.9,-,N/A,,Clear,50,2013-03-29 08:55:00
4:55 AM,37.4,31.1,78,30.19,10.0,ENE,4.6,-,N/A,,Clear,60,2013-03-29 09:55:00
5:55 AM,30.7,30.6,99,30.20,10.0,East,4.6,-,N/A,,Clear,80,2013-03-29 10:55:00
6:55 AM,33.8,29.3,84,30.22,10.0,Calm,Calm,-,N/A,,Clear,0,2013-03-29 11:55:00
7:55 AM,33.8,26.8,75,30.24,3.0,East,6.9,-,N/A,,Clear,90,2013-03-29 12:55:00
8:55 AM,41.0,38.8,92,30.25,6.0,ESE,6.9,-,N/A,,Clear,110,2013-03-29 13:55:00
9:55 AM,47.5,37.8,69,30.25,8.0,SE,8.1,-,N/A,,Clear,130,2013-03-29 14:55:00
10:55 AM,54.1,38.3,55,30.25,10.0,SE,5.8,-,N/A,,Clear,130,2013-03-29 15:55:00
11:55 AM,59.9,36.5,42,30.22,10.0,ESE,15.0,-,N/A,,Clear,120,2013-03-29 16:55:00
12:55 PM,63.5,34.9,34,30.19,10.0,SSE,12.7,19.6,N/A,,Clear,160,2013-03-29 17:55:00
1:55 PM,65.5,33.1,30,30.16,10.0,South,15.0,-,N/A,,Clear,170,2013-03-29 18:55:00
2:55 PM,67.3,32.2,27,30.14,10.0,SSE,10.4,18.4,N/A,,Clear,150,2013-03-29 19:55:00
3:55 PM,68.9,28.9,23,30.11,10.0,SE,12.7,-,N/A,,Clear,140,2013-03-29 20:55:00
4:55 PM,69.4,29.7,23,30.09,10.0,SSE,12.7,-,N/A,,Clear,150,2013-03-29 21:55:00
5:55 PM,68.2,29.3,23,30.09,10.0,SSE,12.7,-,N/A,,Clear,160,2013-03-29 22:55:00
6:55 PM,64.8,30.4,28,30.08,10.0,SE,11.5,-,N/A,,Clear,140,2013-03-29 23:55:00
7:55 PM,59.5,31.1,34,30.08,10.0,SE,6.9,-,N/A,,Clear,130,2013-03-30 00:55:00
8:55 PM,55.4,31.6,40,30.07,10.0,ESE,9.2,-,N/A,,Mostly Cloudy,110,2013-03-30 01:55:00
9:55 PM,55.4,31.6,40,30.07,10.0,ESE,9.2,-,N/A,,Mostly Cloudy,110,2013-03-30 02:55:00
10:55 PM,56.7,31.5,38,30.04,10.0,SE,10.4,-,N/A,,Scattered Clouds,130,2013-03-30 03:55:00
11:55 PM,56.3,32.0,40,30.07,10.0,SE,9.2,-,N/A,,Mostly Cloudy,130,2013-03-30 04:55:00